createdAt,value
2023-01-17T00:00:08.675Z,3.05
2023-01-17T00:02:35.788Z,3.55
2023-01-17T00:08:39.970Z,2.70
2023-01-17T00:11:06.998Z,3.08
2023-01-17T00:13:34.029Z,3.00
2023-01-17T00:16:01.106Z,2.92
2023-01-17T05:51:58.360Z,6.88
2023-01-17T05:54:28.659Z,7.63
2023-01-17T05:56:55.620Z,7.32
2023-01-17T05:59:35.997Z,7.32
2023-01-17T06:02:03.891Z,8.20
2023-01-17T06:04:31.431Z,7.50
2023-01-17T06:06:58.576Z,8.40
2023-01-17T06:09:27.769Z,7.45
2023-01-17T06:11:55.200Z,8.65
2023-01-17T06:17:41.663Z,8.48
2023-01-17T06:20:10.801Z,8.15
2023-01-17T06:22:41.363Z,7.90
2023-01-17T06:25:08.763Z,8.65
2023-01-17T06:27:38.268Z,7.78
2023-01-17T06:30:06.204Z,8.02
2023-01-17T06:32:33.688Z,8.80
2023-01-17T06:53:50.129Z,7.78
2023-01-17T07:02:34.417Z,7.82
2023-01-17T07:05:05.754Z,8.35
2023-01-17T07:07:36.259Z,9.15
2023-01-17T07:10:05.405Z,8.43
2023-01-17T07:12:35.032Z,8.35
2023-01-17T07:33:40.101Z,9.32
2023-01-17T07:36:11.231Z,9.45
2023-01-17T07:38:39.542Z,9.53
2023-01-17T07:41:07.007Z,10.35
2023-01-17T07:43:35.771Z,10.35
2023-01-17T07:46:06.084Z,10.95
2023-01-17T07:48:35.535Z,11.45
2023-01-17T07:51:03.047Z,11.00
2023-01-17T07:53:32.079Z,10.95
2023-01-17T07:56:07.696Z,10.95
2023-01-17T07:58:38.790Z,10.52
2023-01-17T08:04:29.353Z,11.48
2023-01-17T08:06:56.701Z,10.57
2023-01-17T08:09:28.367Z,10.48
2023-01-17T08:18:04.153Z,10.48
2023-01-17T08:20:40.480Z,10.68
2023-01-17T08:23:26.967Z,11.30
2023-01-17T08:26:14.787Z,10.20
2023-01-17T08:28:45.931Z,10.55
2023-01-17T08:31:29.301Z,11.32
2023-01-17T08:33:58.987Z,10.65
2023-01-17T08:36:29.276Z,12.13
2023-01-17T08:39:08.827Z,10.57
2023-01-17T08:41:36.961Z,10.63
2023-01-17T08:44:13.333Z,12.55
2023-01-17T08:46:44.880Z,12.82
2023-01-17T08:49:27.714Z,11.63
2023-01-17T08:54:47.019Z,12.18
2023-01-17T08:57:28.659Z,12.15
2023-01-17T09:00:07.621Z,12.23
2023-01-17T09:02:52.215Z,13.13
2023-01-17T09:05:37.259Z,12.98
2023-01-17T09:08:16.736Z,13.77
2023-01-17T10:30:48.679Z,9.07
2023-01-17T10:33:43.325Z,9.85
2023-01-17T10:36:25.043Z,10.55
2023-01-17T10:39:04.559Z,10.50
2023-01-17T10:41:43.872Z,9.20
2023-01-17T10:47:49.219Z,9.18
2023-01-17T10:50:33.758Z,8.43
2023-01-17T10:53:39.724Z,8.45
2023-01-17T10:56:14.709Z,9.20
2023-01-17T11:05:16.581Z,9.77
2023-01-17T11:23:06.034Z,7.57
2023-01-17T11:34:33.790Z,6.25
2023-01-17T11:37:21.180Z,5.95
2023-01-17T11:39:49.004Z,5.15
2023-01-17T11:42:34.158Z,5.35
2023-01-17T11:45:40.841Z,5.43
2023-01-17T11:48:08.261Z,6.13
2023-01-17T11:51:25.973Z,6.30
2023-01-17T11:53:55.011Z,5.95
2023-01-17T11:56:42.811Z,5.65
2023-01-17T11:59:24.491Z,4.90
2023-01-17T12:02:16.685Z,5.50
2023-01-17T12:05:06.311Z,5.30
2023-01-17T12:08:01.401Z,5.60
2023-01-17T12:10:56.658Z,6.38
2023-01-17T12:13:45.568Z,5.05
2023-01-17T12:16:31.963Z,4.93
2023-01-17T12:19:05.083Z,4.47
2023-01-17T12:22:00.525Z,5.05
2023-01-17T12:24:36.985Z,3.88
2023-01-17T12:27:36.325Z,4.18
2023-01-17T12:30:23.559Z,5.32
2023-01-17T12:33:40.744Z,5.10
2023-01-17T12:36:48.431Z,5.00
2023-01-17T12:39:18.793Z,5.65
2023-01-17T12:41:55.063Z,5.40
2023-01-17T12:44:44.921Z,5.40
2023-01-17T12:47:16.300Z,5.70
2023-01-17T12:50:15.328Z,3.90
2023-01-17T12:52:48.662Z,5.38
2023-01-17T12:55:29.373Z,4.55
2023-01-17T12:58:02.102Z,4.45
2023-01-17T13:00:34.113Z,4.15
2023-01-17T13:03:36.410Z,3.42
2023-01-17T13:06:06.226Z,2.15
2023-01-17T13:08:48.473Z,2.75
2023-01-17T13:11:23.255Z,7.10
2023-01-17T13:13:54.649Z,3.97
2023-01-17T13:16:29.954Z,3.45
2023-01-17T13:19:05.023Z,3.25
2023-01-17T13:21:37.685Z,3.67
2023-01-17T13:24:35.635Z,2.90
2023-01-17T13:27:07.038Z,2.95
2023-01-17T13:29:59.979Z,3.45
2023-01-17T13:32:53.082Z,2.75
2023-01-17T13:35:51.749Z,3.03
2023-01-17T13:41:45.119Z,2.70
2023-01-17T13:44:33.794Z,2.63
2023-01-17T13:47:08.283Z,2.53
2023-01-17T13:49:43.487Z,2.95
2023-01-17T13:55:46.635Z,3.08
2023-01-17T13:58:29.475Z,2.88
2023-01-17T14:01:01.907Z,2.95
2023-01-17T14:03:55.935Z,2.30
2023-01-17T14:06:47.421Z,2.58
2023-01-17T14:09:20.825Z,3.40
2023-01-17T14:12:06.076Z,2.95
2023-01-17T14:14:41.384Z,3.45
2023-01-17T14:17:37.131Z,2.75
2023-01-17T14:20:13.801Z,3.22
2023-01-17T14:22:53.797Z,3.38
2023-01-17T14:28:33.099Z,2.72
2023-01-17T14:31:03.538Z,2.40
2023-01-17T14:33:38.793Z,4.47
2023-01-17T14:36:14.700Z,8.20
2023-01-17T14:38:44.640Z,4.10
2023-01-17T14:41:25.257Z,2.92
2023-01-17T14:43:57.017Z,2.65
2023-01-17T14:46:31.989Z,2.65
2023-01-17T14:49:06.383Z,2.67
2023-01-17T14:51:35.722Z,3.13
2023-01-17T14:54:06.432Z,2.85
2023-01-17T14:56:34.011Z,2.40
2023-01-17T14:59:24.211Z,2.75
2023-01-17T15:02:07.186Z,3.13
2023-01-17T15:04:44.612Z,3.25
2023-01-17T15:07:17.285Z,4.30
2023-01-17T15:09:52.069Z,4.25
2023-01-17T15:12:19.704Z,3.42
2023-01-17T15:14:47.921Z,2.15
2023-01-17T15:17:26.422Z,2.35
2023-01-17T15:20:01.834Z,2.03
2023-01-17T15:22:30.066Z,2.45
2023-01-17T15:24:58.672Z,4.97
2023-01-17T15:27:26.736Z,4.53
2023-01-17T15:29:59.468Z,3.80
2023-01-17T15:32:38.920Z,3.10
2023-01-17T15:35:08.361Z,3.30
2023-01-17T15:37:42.474Z,2.78
2023-01-17T15:40:24.951Z,3.35
2023-01-17T15:42:58.526Z,3.35
2023-01-17T15:45:33.313Z,3.05
2023-01-17T15:48:31.883Z,2.35
2023-01-17T15:50:59.429Z,1.80
2023-01-17T15:53:34.253Z,2.40
2023-01-17T15:56:18.826Z,2.30
2023-01-17T15:58:51.115Z,2.53
2023-01-17T16:01:25.665Z,2.80
2023-01-17T16:06:50.372Z,4.03
2023-01-17T16:09:24.470Z,3.72
2023-01-17T16:38:46.516Z,3.13
2023-01-17T16:41:24.226Z,2.67
2023-01-17T16:44:00.902Z,3.08
2023-01-17T16:46:35.906Z,6.22
2023-01-17T16:49:38.315Z,2.83
2023-01-17T16:52:05.839Z,2.65
2023-01-17T16:54:40.872Z,3.08
2023-01-17T17:06:03.523Z,3.35
2023-01-17T17:08:35.495Z,3.28
2023-01-17T17:11:26.082Z,3.67
2023-01-17T17:16:45.221Z,3.20
2023-01-17T17:19:23.006Z,3.20
2023-01-17T17:21:59.841Z,4.15
2023-01-17T17:24:29.759Z,3.20
2023-01-17T17:27:19.833Z,3.83
2023-01-17T17:29:47.583Z,4.10
2023-01-17T17:32:14.594Z,4.22
2023-01-17T17:34:41.481Z,5.25
2023-01-17T17:37:08.470Z,4.25
2023-01-17T17:39:35.468Z,4.55
2023-01-17T17:42:02.771Z,4.78
2023-01-17T17:45:26.063Z,5.25
2023-01-17T17:48:03.232Z,4.65
2023-01-17T17:59:56.820Z,5.30
2023-01-17T18:29:59.032Z,7.53
2023-01-17T18:32:30.774Z,7.68
2023-01-17T18:35:32.717Z,8.20
2023-01-17T18:38:02.852Z,7.55
2023-01-17T18:41:04.930Z,7.63
2023-01-17T19:18:37.948Z,12.30
2023-01-17T19:21:10.462Z,12.48
2023-01-17T19:23:38.736Z,12.57
2023-01-17T19:31:53.391Z,15.05
2023-01-17T19:35:05.083Z,14.27
2023-01-17T19:37:32.715Z,14.95
2023-01-17T19:40:00.091Z,14.63
2023-01-17T19:45:40.877Z,15.48
2023-01-17T19:48:12.828Z,15.40
2023-01-17T19:50:40.650Z,15.90
2023-01-17T19:53:07.891Z,15.27
2023-01-17T19:55:39.805Z,14.98
2023-01-17T20:00:46.240Z,15.25
2023-01-17T20:03:20.450Z,13.13
2023-01-17T20:05:56.728Z,13.00
2023-01-17T20:08:25.665Z,14.77
2023-01-17T20:10:53.539Z,17.17
2023-01-17T20:13:30.321Z,15.95
2023-01-17T20:16:02.143Z,15.75
2023-01-17T20:18:31.483Z,15.65
2023-01-17T20:21:14.186Z,15.43
2023-01-17T20:23:52.378Z,15.40
2023-01-17T20:26:35.136Z,15.35
2023-01-17T20:31:40.029Z,14.77
2023-01-17T20:37:09.862Z,14.48
2023-01-17T20:39:39.683Z,15.05
2023-01-17T20:42:10.858Z,16.25
2023-01-17T20:44:37.925Z,17.73
2023-01-17T20:47:07.488Z,18.42
2023-01-17T20:49:34.505Z,21.27
2023-01-17T20:52:01.927Z,21.45
2023-01-17T20:54:29.927Z,21.60
2023-01-17T20:57:15.150Z,18.23
2023-01-17T20:59:42.220Z,18.48
2023-01-17T21:02:10.760Z,16.83
2023-01-17T21:04:39.671Z,17.17
2023-01-17T21:07:06.997Z,17.33
2023-01-17T21:09:34.358Z,16.15
2023-01-17T21:12:01.676Z,19.73
2023-01-17T21:14:29.915Z,25.75
2023-01-17T21:16:56.883Z,26.48
2023-01-17T21:19:24.004Z,21.08
2023-01-17T21:21:51.897Z,20.40
2023-01-17T21:24:20.786Z,18.95
2023-01-17T21:26:48.743Z,19.30
2023-01-17T21:29:16.213Z,18.70
2023-01-17T21:31:43.696Z,21.42
2023-01-17T21:34:12.112Z,20.90
2023-01-17T21:39:29.314Z,21.20
2023-01-17T21:41:59.228Z,20.10
2023-01-17T21:44:38.873Z,19.08
2023-01-17T21:47:07.152Z,19.90
2023-01-17T21:49:34.092Z,21.85
2023-01-17T21:52:01.137Z,18.63
2023-01-17T21:54:52.248Z,19.77
2023-01-17T21:57:40.743Z,20.05
2023-01-17T22:00:15.176Z,19.38
2023-01-17T22:02:54.201Z,18.25
2023-01-17T22:05:21.370Z,19.58
2023-01-17T22:08:11.021Z,18.75
2023-01-17T22:10:46.363Z,18.85
2023-01-17T22:13:20.195Z,18.05
2023-01-17T22:16:06.820Z,17.30
2023-01-17T22:18:37.686Z,17.40
2023-01-17T22:21:25.663Z,15.85
2023-01-17T22:23:56.732Z,17.15
2023-01-17T22:26:28.641Z,20.43
2023-01-17T22:28:57.431Z,19.80
2023-01-17T22:31:29.582Z,18.30
2023-01-17T22:34:01.708Z,17.00
2023-01-17T22:36:33.408Z,18.67
2023-01-17T22:39:03.138Z,15.50
2023-01-17T22:41:34.043Z,14.48
2023-01-17T22:44:03.661Z,14.48
2023-01-17T22:46:33.431Z,13.60
2023-01-17T22:49:00.569Z,13.63
2023-01-17T22:51:29.916Z,14.00
2023-01-17T22:54:00.366Z,14.13
2023-01-17T22:56:32.947Z,13.52
2023-01-17T23:00:10.235Z,13.52
2023-01-17T23:02:44.391Z,13.32
2023-01-17T23:05:11.673Z,14.20
2023-01-17T23:07:53.229Z,14.10
2023-01-17T23:10:39.684Z,14.13
2023-01-17T23:13:11.227Z,15.45
2023-01-17T23:16:09.766Z,14.82
2023-01-17T23:19:04.583Z,14.50
2023-01-17T23:21:55.460Z,13.70
2023-01-17T23:24:22.525Z,14.70
2023-01-17T23:27:09.818Z,14.45
2023-01-17T23:29:37.001Z,14.52
2023-01-17T23:32:04.069Z,14.35
2023-01-17T23:34:31.956Z,15.25
2023-01-17T23:36:58.925Z,15.15
2023-01-17T23:39:27.949Z,14.85
2023-01-17T23:45:05.575Z,14.63
2023-01-17T23:47:33.008Z,15.52
2023-01-17T23:50:00.836Z,13.63
2023-01-17T23:52:27.850Z,13.25
2023-01-17T23:54:54.887Z,13.07
2023-01-17T23:57:22.173Z,14.68
2023-01-17T23:59:49.381Z,14.30
